Tuesday, June 19, 2018, 12:48 AM EDT
Back to Local

KBED, Bedford Hanscom Field

Location: Concord, MA, United States Lat: 42.467
Local Time: 12:48 AM EDT ( 4:48 GMT) Lon: -71.3
Time Zone: US/Eastern Elev: 134 ft

Show me the last for .
Show Decoded

2018-06-18 23:56 METAR KBED 190356Z AUTO 22008KT 10SM FEW120 22/21 A2966 RMK AO2 SLP052 T02220206
                 =
2018-06-18 22:56 METAR KBED 190256Z AUTO 22007KT 10SM FEW110 22/21 A2968 RMK AO2 SLP061 60011
                 T02220206 58012 =
2018-06-18 21:56 METAR KBED 190156Z 22009KT 10SM BKN050 23/21 A2972 RMK AO2 RAE15 SLP073 P0005
                 T02280211 =
2018-06-18 21:14 METAR KBED 190114Z 23009KT 9SM -RA SCT048 OVC100 23/22 A2973 RMK AO2 LTG DSNT SW
                 P0005 T02280217 =
2018-06-18 21:05 METAR KBED 190105Z 20009KT 2 1/2SM +RA BR BKN048 BKN070 OVC120 23/22 A2973 RMK
                 AO2 LTG DSNT SW P0005 T02280217 =
2018-06-18 20:56 METAR KBED 190056Z 28010KT 2 1/2SM VCTS RA BR SCT049 BKN070 BKN100 23/22 A2976
                 RMK AO2 RAB32 PRESRR SLP088 P0006 T02280217 =
2018-06-18 19:56 METAR KBED 182356Z 17008KT 10SM FEW075 FEW095 SCT120 22/21 A2972 RMK AO2 WSHFT
                 2246 RAE33 TSE19 SLP074 P0016 60027 T02220211 10328 20217 58001 =
2018-06-18 19:41 METAR KBED 182341Z 18005KT 10SM FEW090 SCT110 22/21 A2974 RMK AO2 WSHFT 2246 LTG
                 DSNT E AND SE RAE33 TSE19 PRESFR P0016 T02220211 =
2018-06-18 19:25 METAR KBED 182325Z 20009KT 10SM VCTS -RA FEW024 BKN110 22/21 A2976 RMK AO2 WSHFT
                 2246 LTG DSNT NE-SE TSE19 P0016 T02220211 =
2018-06-18 19:10 METAR KBED 182310Z 28006KT 3SM R11/4000VP6000FT -TSRA BR FEW019 BKN060 OVC100
                 22/21 A2977 RMK AO2 WSHFT 2246 LTG DSNT NE AND SW P0015 T02220206 =
2018-06-18 19:00 METAR KBED 182300Z 31018G39KT 1SM R11/2600VP6000FT +TSRA BR SCT021 SCT031 BKN044
                 22/21 A2978 RMK AO2 WSHFT 2246 LTG DSNT ALQDS P0012 T02220211 =
2018-06-18 18:56 METAR KBED 182256Z 30027G39KT 2SM R11/2600VP6000FT +TSRA SCT029 SCT043 BKN065
                 24/21 A2979 RMK AO2 PK WND 26039/2251 LTG DSNT W-NE RAB48 TSB55 PRESRR SLP098
                 P0011 T02390211 =
2018-06-18 18:35 METAR KBED 182235Z 21011G22KT 10SM VCTS SCT100 29/21 A2972 RMK AO2 LTG DSNT W-NE
                 T02890211 =
2018-06-18 17:56 METAR KBED 182156Z 21014G21KT 10SM CLR 29/21 A2971 RMK AO2 PK WND 21028/2104 LTG
                 DSNT W AND NW SLP071 T02940211 =
2018-06-18 16:56 METAR KBED 182056Z 21017G26KT 10SM CLR 32/22 A2972 RMK AO2 PK WND 22027/2043
                 SLP074 T03220222 56028 =
2018-06-18 15:56 METAR KBED 181956Z 21018G22KT 10SM SCT180 BKN250 33/22 A2975 RMK AO2 SLP083
                 T03280222 =
2018-06-18 14:56 METAR KBED 181856Z 20014G19KT 10SM SCT180 OVC250 33/22 A2978 RMK AO2 SLP094
                 T03280222 =
2018-06-18 13:56 METAR KBED 181756Z 18009KT 10SM SCT180 OVC250 30/22 A2981 RMK AO2 SLP103
                 T03000217 10300 20233 58028 =
2018-06-18 12:56 METAR KBED 181656Z 19011KT 10SM SCT180 OVC230 29/21 A2984 RMK AO2 SLP115
                 T02940211 =
2018-06-18 11:56 METAR KBED 181556Z 20013KT 10SM CLR 29/21 A2987 RMK AO2 SLP127 T02940206 =
2018-06-18 10:56 METAR KBED 181456Z 21008KT 10SM SCT180 OVC250 27/19 A2989 RMK AO2 SLP131
                 T02720194 56017 =
2018-06-18 09:56 METAR KBED 181356Z 22009KT 10SM SCT180 OVC250 26/18 A2990 RMK AO2 SLP136
                 T02610183 =
2018-06-18 08:56 METAR KBED 181256Z 21008KT 10SM SCT180 BKN250 26/18 A2992 RMK AO2 SLP141
                 T02610178 =
2018-06-18 07:56 METAR KBED 181156Z 22009KT 10SM SCT180 BKN250 23/16 A2994 RMK AO2 SLP148
                 T02330161 10233 20178 58012 =
2018-06-18 06:56 METAR KBED 181056Z 22006KT 10SM SCT180 OVC250 21/15 A2995 RMK AO2 SLP154
                 T02060150 =
2018-06-18 05:56 METAR KBED 180956Z AUTO 22006KT 10SM CLR 20/14 A2996 RMK AO2 SLP156 T02000139 =
2018-06-18 04:56 METAR KBED 180856Z AUTO 22005KT 10SM CLR 19/13 A2997 RMK AO2 SLP161 T01940128
                 56015 =
2018-06-18 03:56 METAR KBED 180756Z AUTO 20006KT 10SM CLR 18/13 A2998 RMK AO2 SLP163 T01830128 =
2018-06-18 02:56 METAR KBED 180656Z AUTO 20005KT 10SM CLR 18/13 A3000 RMK AO2 SLP168 T01780128 =
2018-06-18 01:56 METAR KBED 180556Z AUTO 20003KT 10SM CLR 18/13 A3002 RMK AO2 SLP176 T01830128
                 10222 20183 56003 =
2018-06-18 00:56 METAR KBED 180456Z AUTO 22004KT 10SM CLR 19/13 A3002 RMK AO2 SLP176 T01890133
                 403110117 =

Support USWX by starting your Amazon purchase here.